sensor_id;sensor_type;location;lat;lon;timestamp;P1;durP1;ratioP1;P2;durP2;ratioP2
76336;SDS011;65157;50.082;18.178;2022-11-14T00:00:31;24.80;;;11.40;;
76336;SDS011;65157;50.082;18.178;2022-11-14T00:03:00;29.10;;;12.90;;
76336;SDS011;65157;50.082;18.178;2022-11-14T00:05:28;30.50;;;12.60;;
76336;SDS011;65157;50.082;18.178;2022-11-14T00:07:53;26.70;;;11.80;;
76336;SDS011;65157;50.082;18.178;2022-11-14T00:10:19;29.80;;;12.10;;
76336;SDS011;65157;50.082;18.178;2022-11-14T00:12:44;25.70;;;12.20;;
76336;SDS011;65157;50.082;18.178;2022-11-14T00:15:10;28.00;;;12.70;;
76336;SDS011;65157;50.082;18.178;2022-11-14T00:17:36;25.00;;;11.20;;
76336;SDS011;65157;50.082;18.178;2022-11-14T00:20:02;23.50;;;10.50;;
76336;SDS011;65157;50.082;18.178;2022-11-14T00:22:29;32.20;;;13.60;;
76336;SDS011;65157;50.082;18.178;2022-11-14T00:24:54;24.40;;;11.00;;
76336;SDS011;65157;50.082;18.178;2022-11-14T00:27:20;24.60;;;11.20;;
76336;SDS011;65157;50.082;18.178;2022-11-14T00:29:45;25.30;;;11.20;;
76336;SDS011;65157;50.082;18.178;2022-11-14T00:32:11;25.60;;;12.00;;
76336;SDS011;65157;50.082;18.178;2022-11-14T00:34:36;25.40;;;12.00;;
76336;SDS011;65157;50.082;18.178;2022-11-14T00:37:02;31.30;;;10.10;;
76336;SDS011;65157;50.082;18.178;2022-11-14T00:39:27;24.80;;;11.60;;
76336;SDS011;65157;50.082;18.178;2022-11-14T00:41:52;27.10;;;11.50;;
76336;SDS011;65157;50.082;18.178;2022-11-14T00:44:18;25.40;;;11.90;;
76336;SDS011;65157;50.082;18.178;2022-11-14T00:46:43;29.90;;;12.50;;
76336;SDS011;65157;50.082;18.178;2022-11-14T00:49:09;25.60;;;11.60;;
76336;SDS011;65157;50.082;18.178;2022-11-14T00:51:35;25.50;;;11.00;;
76336;SDS011;65157;50.082;18.178;2022-11-14T00:54:00;29.10;;;12.90;;
76336;SDS011;65157;50.082;18.178;2022-11-14T00:56:26;22.70;;;10.60;;
76336;SDS011;65157;50.082;18.178;2022-11-14T00:58:51;27.20;;;12.00;;
76336;SDS011;65157;50.082;18.178;2022-11-14T01:01:16;25.50;;;11.50;;
76336;SDS011;65157;50.082;18.178;2022-11-14T01:03:42;24.50;;;11.90;;
76336;SDS011;65157;50.082;18.178;2022-11-14T01:06:08;24.20;;;11.30;;
76336;SDS011;65157;50.082;18.178;2022-11-14T01:08:35;27.30;;;11.30;;
76336;SDS011;65157;50.082;18.178;2022-11-14T01:11:07;32.30;;;13.20;;
76336;SDS011;65157;50.082;18.178;2022-11-14T01:13:37;28.00;;;11.20;;
76336;SDS011;65157;50.082;18.178;2022-11-14T01:16:03;27.10;;;12.20;;
76336;SDS011;65157;50.082;18.178;2022-11-14T01:18:29;23.00;;;11.60;;
76336;SDS011;65157;50.082;18.178;2022-11-14T01:20:54;31.30;;;11.70;;
76336;SDS011;65157;50.082;18.178;2022-11-14T01:23:20;28.10;;;12.50;;
76336;SDS011;65157;50.082;18.178;2022-11-14T01:25:45;28.80;;;13.40;;
76336;SDS011;65157;50.082;18.178;2022-11-14T01:28:12;24.30;;;12.30;;
76336;SDS011;65157;50.082;18.178;2022-11-14T01:30:39;26.90;;;12.50;;
76336;SDS011;65157;50.082;18.178;2022-11-14T01:33:05;26.00;;;13.00;;
76336;SDS011;65157;50.082;18.178;2022-11-14T01:35:31;28.90;;;14.00;;
76336;SDS011;65157;50.082;18.178;2022-11-14T01:37:58;27.90;;;12.50;;
76336;SDS011;65157;50.082;18.178;2022-11-14T01:40:23;30.40;;;14.00;;
76336;SDS011;65157;50.082;18.178;2022-11-14T01:45:49;25.30;;;11.50;;
76336;SDS011;65157;50.082;18.178;2022-11-14T01:48:29;27.80;;;13.80;;
76336;SDS011;65157;50.082;18.178;2022-11-14T01:51:01;30.60;;;13.60;;
76336;SDS011;65157;50.082;18.178;2022-11-14T01:53:34;24.80;;;12.10;;
76336;SDS011;65157;50.082;18.178;2022-11-14T01:56:02;29.50;;;13.40;;
76336;SDS011;65157;50.082;18.178;2022-11-14T01:58:30;28.50;;;12.20;;
76336;SDS011;65157;50.082;18.178;2022-11-14T02:03:23;26.00;;;11.80;;
76336;SDS011;65157;50.082;18.178;2022-11-14T02:05:49;27.10;;;13.00;;
76336;SDS011;65157;50.082;18.178;2022-11-14T02:08:15;25.90;;;12.90;;
76336;SDS011;65157;50.082;18.178;2022-11-14T02:10:43;27.60;;;11.90;;
76336;SDS011;65157;50.082;18.178;2022-11-14T02:13:08;28.50;;;12.80;;
76336;SDS011;65157;50.082;18.178;2022-11-14T02:15:33;27.70;;;12.60;;
76336;SDS011;65157;50.082;18.178;2022-11-14T02:18:00;25.30;;;12.30;;
76336;SDS011;65157;50.082;18.178;2022-11-14T02:20:27;23.40;;;10.70;;
76336;SDS011;65157;50.082;18.178;2022-11-14T02:22:57;28.70;;;13.60;;
76336;SDS011;65157;50.082;18.178;2022-11-14T02:25:22;26.50;;;12.20;;
76336;SDS011;65157;50.082;18.178;2022-11-14T02:27:48;25.90;;;11.10;;
76336;SDS011;65157;50.082;18.178;2022-11-14T02:30:16;29.50;;;13.30;;
76336;SDS011;65157;50.082;18.178;2022-11-14T02:32:43;24.00;;;11.50;;
76336;SDS011;65157;50.082;18.178;2022-11-14T02:35:09;21.40;;;11.20;;
76336;SDS011;65157;50.082;18.178;2022-11-14T02:37:35;25.30;;;11.50;;
76336;SDS011;65157;50.082;18.178;2022-11-14T02:40:02;24.30;;;11.70;;
76336;SDS011;65157;50.082;18.178;2022-11-14T02:42:28;21.30;;;10.80;;
76336;SDS011;65157;50.082;18.178;2022-11-14T02:44:53;27.50;;;12.30;;
76336;SDS011;65157;50.082;18.178;2022-11-14T02:47:19;27.60;;;12.00;;
76336;SDS011;65157;50.082;18.178;2022-11-14T02:49:44;24.30;;;11.50;;
76336;SDS011;65157;50.082;18.178;2022-11-14T02:52:10;27.80;;;12.90;;
76336;SDS011;65157;50.082;18.178;2022-11-14T02:54:35;28.70;;;12.50;;
76336;SDS011;65157;50.082;18.178;2022-11-14T02:57:00;20.70;;;9.60;;
76336;SDS011;65157;50.082;18.178;2022-11-14T02:59:26;27.60;;;13.20;;
76336;SDS011;65157;50.082;18.178;2022-11-14T03:01:51;28.90;;;13.20;;
76336;SDS011;65157;50.082;18.178;2022-11-14T03:04:16;26.40;;;11.80;;
76336;SDS011;65157;50.082;18.178;2022-11-14T03:06:42;25.30;;;11.70;;
76336;SDS011;65157;50.082;18.178;2022-11-14T03:09:07;24.10;;;12.10;;
76336;SDS011;65157;50.082;18.178;2022-11-14T03:11:32;26.70;;;11.20;;
76336;SDS011;65157;50.082;18.178;2022-11-14T03:13:58;26.00;;;11.80;;
76336;SDS011;65157;50.082;18.178;2022-11-14T03:16:24;22.20;;;11.30;;
76336;SDS011;65157;50.082;18.178;2022-11-14T03:18:49;24.50;;;12.10;;
76336;SDS011;65157;50.082;18.178;2022-11-14T03:21:16;22.70;;;11.70;;
76336;SDS011;65157;50.082;18.178;2022-11-14T03:23:43;22.30;;;11.10;;
76336;SDS011;65157;50.082;18.178;2022-11-14T03:26:10;24.40;;;11.20;;
76336;SDS011;65157;50.082;18.178;2022-11-14T03:28:36;25.10;;;12.20;;
76336;SDS011;65157;50.082;18.178;2022-11-14T03:31:03;29.10;;;13.70;;
76336;SDS011;65157;50.082;18.178;2022-11-14T03:33:29;27.30;;;12.60;;
76336;SDS011;65157;50.082;18.178;2022-11-14T03:35:55;22.40;;;12.10;;
76336;SDS011;65157;50.082;18.178;2022-11-14T03:38:20;22.20;;;11.30;;
76336;SDS011;65157;50.082;18.178;2022-11-14T03:40:47;23.00;;;12.00;;
76336;SDS011;65157;50.082;18.178;2022-11-14T03:43:16;25.40;;;11.70;;
76336;SDS011;65157;50.082;18.178;2022-11-14T03:45:42;30.00;;;12.90;;
76336;SDS011;65157;50.082;18.178;2022-11-14T03:48:07;25.70;;;11.90;;
76336;SDS011;65157;50.082;18.178;2022-11-14T03:50:33;27.80;;;12.70;;
76336;SDS011;65157;50.082;18.178;2022-11-14T03:52:58;25.70;;;12.40;;
76336;SDS011;65157;50.082;18.178;2022-11-14T03:55:24;23.30;;;12.20;;
76336;SDS011;65157;50.082;18.178;2022-11-14T03:57:50;23.70;;;10.70;;
76336;SDS011;65157;50.082;18.178;2022-11-14T04:00:15;25.40;;;11.70;;
76336;SDS011;65157;50.082;18.178;2022-11-14T04:02:41;24.20;;;11.00;;
76336;SDS011;65157;50.082;18.178;2022-11-14T04:05:06;20.30;;;10.90;;
76336;SDS011;65157;50.082;18.178;2022-11-14T04:07:32;24.90;;;11.70;;
76336;SDS011;65157;50.082;18.178;2022-11-14T04:09:58;13.30;;;6.80;;
76336;SDS011;65157;50.082;18.178;2022-11-14T04:12:23;30.80;;;13.40;;
76336;SDS011;65157;50.082;18.178;2022-11-14T04:14:49;20.30;;;10.70;;
76336;SDS011;65157;50.082;18.178;2022-11-14T04:17:14;20.20;;;9.80;;
76336;SDS011;65157;50.082;18.178;2022-11-14T04:19:39;18.40;;;9.00;;
76336;SDS011;65157;50.082;18.178;2022-11-14T04:22:05;18.30;;;8.90;;
76336;SDS011;65157;50.082;18.178;2022-11-14T04:24:30;20.50;;;10.20;;
76336;SDS011;65157;50.082;18.178;2022-11-14T04:26:56;16.80;;;7.60;;
76336;SDS011;65157;50.082;18.178;2022-11-14T04:29:21;15.70;;;7.90;;
76336;SDS011;65157;50.082;18.178;2022-11-14T04:31:47;17.90;;;8.50;;
76336;SDS011;65157;50.082;18.178;2022-11-14T04:34:12;15.50;;;7.60;;
76336;SDS011;65157;50.082;18.178;2022-11-14T04:36:38;17.60;;;8.80;;
76336;SDS011;65157;50.082;18.178;2022-11-14T04:39:03;23.20;;;9.90;;
76336;SDS011;65157;50.082;18.178;2022-11-14T04:41:29;19.50;;;10.00;;
76336;SDS011;65157;50.082;18.178;2022-11-14T04:43:54;19.90;;;9.90;;
76336;SDS011;65157;50.082;18.178;2022-11-14T04:46:19;19.70;;;10.10;;
76336;SDS011;65157;50.082;18.178;2022-11-14T04:48:45;19.00;;;10.20;;
76336;SDS011;65157;50.082;18.178;2022-11-14T04:51:10;24.10;;;12.60;;
76336;SDS011;65157;50.082;18.178;2022-11-14T04:53:36;16.90;;;8.80;;
76336;SDS011;65157;50.082;18.178;2022-11-14T04:56:01;19.90;;;10.60;;
76336;SDS011;65157;50.082;18.178;2022-11-14T04:58:27;23.10;;;10.60;;
76336;SDS011;65157;50.082;18.178;2022-11-14T05:00:52;21.50;;;10.30;;
76336;SDS011;65157;50.082;18.178;2022-11-14T05:03:17;18.10;;;9.80;;
76336;SDS011;65157;50.082;18.178;2022-11-14T05:05:43;19.10;;;9.30;;
76336;SDS011;65157;50.082;18.178;2022-11-14T05:08:08;20.20;;;9.90;;
76336;SDS011;65157;50.082;18.178;2022-11-14T05:10:34;22.20;;;10.10;;
76336;SDS011;65157;50.082;18.178;2022-11-14T05:12:59;21.40;;;9.90;;
76336;SDS011;65157;50.082;18.178;2022-11-14T05:15:24;26.50;;;11.70;;
76336;SDS011;65157;50.082;18.178;2022-11-14T05:17:50;21.40;;;10.30;;
76336;SDS011;65157;50.082;18.178;2022-11-14T05:20:15;21.20;;;10.40;;
76336;SDS011;65157;50.082;18.178;2022-11-14T05:22:41;21.60;;;10.40;;
76336;SDS011;65157;50.082;18.178;2022-11-14T05:25:06;20.80;;;10.70;;
76336;SDS011;65157;50.082;18.178;2022-11-14T05:27:32;22.80;;;11.20;;
76336;SDS011;65157;50.082;18.178;2022-11-14T05:29:58;25.30;;;11.60;;
76336;SDS011;65157;50.082;18.178;2022-11-14T05:32:23;22.00;;;10.70;;
76336;SDS011;65157;50.082;18.178;2022-11-14T05:34:49;18.80;;;9.40;;
76336;SDS011;65157;50.082;18.178;2022-11-14T05:37:14;20.50;;;11.10;;
76336;SDS011;65157;50.082;18.178;2022-11-14T05:39:40;23.20;;;11.30;;
76336;SDS011;65157;50.082;18.178;2022-11-14T05:42:05;19.70;;;10.40;;
76336;SDS011;65157;50.082;18.178;2022-11-14T05:44:31;26.30;;;13.00;;
76336;SDS011;65157;50.082;18.178;2022-11-14T05:46:56;21.00;;;12.00;;
76336;SDS011;65157;50.082;18.178;2022-11-14T05:49:22;20.20;;;10.90;;
76336;SDS011;65157;50.082;18.178;2022-11-14T05:51:47;19.00;;;10.00;;
76336;SDS011;65157;50.082;18.178;2022-11-14T05:54:13;17.90;;;9.40;;
76336;SDS011;65157;50.082;18.178;2022-11-14T05:56:39;19.10;;;9.30;;
76336;SDS011;65157;50.082;18.178;2022-11-14T05:59:04;20.70;;;10.90;;
76336;SDS011;65157;50.082;18.178;2022-11-14T06:01:29;20.50;;;10.30;;
76336;SDS011;65157;50.082;18.178;2022-11-14T06:03:55;16.90;;;9.40;;
76336;SDS011;65157;50.082;18.178;2022-11-14T06:06:20;19.30;;;10.10;;
76336;SDS011;65157;50.082;18.178;2022-11-14T06:08:47;20.50;;;10.60;;
76336;SDS011;65157;50.082;18.178;2022-11-14T06:11:19;20.40;;;10.00;;
76336;SDS011;65157;50.082;18.178;2022-11-14T06:13:45;23.00;;;11.50;;
76336;SDS011;65157;50.082;18.178;2022-11-14T06:16:12;21.60;;;10.00;;
76336;SDS011;65157;50.082;18.178;2022-11-14T06:18:40;20.00;;;10.30;;
76336;SDS011;65157;50.082;18.178;2022-11-14T06:21:08;18.90;;;9.40;;
76336;SDS011;65157;50.082;18.178;2022-11-14T06:23:36;19.90;;;9.60;;
76336;SDS011;65157;50.082;18.178;2022-11-14T06:26:03;22.60;;;11.10;;
76336;SDS011;65157;50.082;18.178;2022-11-14T06:28:30;22.10;;;10.00;;
76336;SDS011;65157;50.082;18.178;2022-11-14T06:30:57;22.00;;;11.00;;
76336;SDS011;65157;50.082;18.178;2022-11-14T06:33:26;19.30;;;9.70;;
76336;SDS011;65157;50.082;18.178;2022-11-14T06:36:00;17.00;;;8.70;;
76336;SDS011;65157;50.082;18.178;2022-11-14T06:38:27;19.30;;;9.80;;
76336;SDS011;65157;50.082;18.178;2022-11-14T06:41:00;22.50;;;11.00;;
76336;SDS011;65157;50.082;18.178;2022-11-14T06:43:28;20.80;;;9.90;;
76336;SDS011;65157;50.082;18.178;2022-11-14T06:45:53;20.20;;;10.30;;
76336;SDS011;65157;50.082;18.178;2022-11-14T06:48:19;22.40;;;10.80;;
76336;SDS011;65157;50.082;18.178;2022-11-14T06:50:52;23.20;;;10.50;;
76336;SDS011;65157;50.082;18.178;2022-11-14T06:53:18;20.90;;;10.60;;
76336;SDS011;65157;50.082;18.178;2022-11-14T06:58:19;30.90;;;15.10;;
76336;SDS011;65157;50.082;18.178;2022-11-14T07:00:45;21.90;;;10.70;;
76336;SDS011;65157;50.082;18.178;2022-11-14T07:03:10;22.00;;;11.70;;
76336;SDS011;65157;50.082;18.178;2022-11-14T07:05:35;21.70;;;11.20;;
76336;SDS011;65157;50.082;18.178;2022-11-14T07:08:01;21.80;;;9.80;;
76336;SDS011;65157;50.082;18.178;2022-11-14T07:10:26;23.00;;;11.10;;
76336;SDS011;65157;50.082;18.178;2022-11-14T07:12:52;23.70;;;11.70;;
76336;SDS011;65157;50.082;18.178;2022-11-14T07:15:17;23.00;;;11.90;;
76336;SDS011;65157;50.082;18.178;2022-11-14T07:17:42;24.60;;;11.30;;
76336;SDS011;65157;50.082;18.178;2022-11-14T07:20:08;24.20;;;11.70;;
76336;SDS011;65157;50.082;18.178;2022-11-14T07:22:34;24.80;;;12.00;;
76336;SDS011;65157;50.082;18.178;2022-11-14T07:24:59;24.30;;;10.20;;
76336;SDS011;65157;50.082;18.178;2022-11-14T07:27:24;30.80;;;13.40;;
76336;SDS011;65157;50.082;18.178;2022-11-14T07:29:50;30.80;;;14.00;;
76336;SDS011;65157;50.082;18.178;2022-11-14T07:32:15;22.50;;;11.80;;
76336;SDS011;65157;50.082;18.178;2022-11-14T07:34:41;25.00;;;11.90;;
76336;SDS011;65157;50.082;18.178;2022-11-14T07:37:06;20.20;;;10.70;;
76336;SDS011;65157;50.082;18.178;2022-11-14T07:39:31;25.30;;;11.90;;
76336;SDS011;65157;50.082;18.178;2022-11-14T07:41:57;29.50;;;12.40;;
76336;SDS011;65157;50.082;18.178;2022-11-14T07:44:22;31.20;;;15.50;;
76336;SDS011;65157;50.082;18.178;2022-11-14T07:46:48;31.20;;;14.80;;
76336;SDS011;65157;50.082;18.178;2022-11-14T07:49:14;33.40;;;17.20;;
76336;SDS011;65157;50.082;18.178;2022-11-14T07:51:39;34.20;;;16.30;;
76336;SDS011;65157;50.082;18.178;2022-11-14T07:54:05;36.80;;;16.40;;
76336;SDS011;65157;50.082;18.178;2022-11-14T07:56:30;62.50;;;26.30;;
76336;SDS011;65157;50.082;18.178;2022-11-14T07:58:56;31.30;;;15.00;;
76336;SDS011;65157;50.082;18.178;2022-11-14T08:01:22;25.80;;;12.30;;
76336;SDS011;65157;50.082;18.178;2022-11-14T08:03:47;24.50;;;12.70;;
76336;SDS011;65157;50.082;18.178;2022-11-14T08:06:13;36.70;;;16.00;;
76336;SDS011;65157;50.082;18.178;2022-11-14T08:08:40;32.60;;;15.90;;
76336;SDS011;65157;50.082;18.178;2022-11-14T08:11:06;44.00;;;18.60;;
76336;SDS011;65157;50.082;18.178;2022-11-14T08:13:31;37.80;;;17.40;;
76336;SDS011;65157;50.082;18.178;2022-11-14T08:15:57;29.80;;;14.10;;
76336;SDS011;65157;50.082;18.178;2022-11-14T08:18:24;31.10;;;14.30;;
76336;SDS011;65157;50.082;18.178;2022-11-14T08:20:49;34.90;;;16.00;;
76336;SDS011;65157;50.082;18.178;2022-11-14T08:23:15;30.70;;;14.70;;
76336;SDS011;65157;50.082;18.178;2022-11-14T08:25:40;34.60;;;15.90;;
76336;SDS011;65157;50.082;18.178;2022-11-14T08:28:06;36.90;;;16.60;;
76336;SDS011;65157;50.082;18.178;2022-11-14T08:30:32;36.50;;;15.90;;
76336;SDS011;65157;50.082;18.178;2022-11-14T08:33:00;30.20;;;14.00;;
76336;SDS011;65157;50.082;18.178;2022-11-14T08:35:27;38.00;;;16.40;;
76336;SDS011;65157;50.082;18.178;2022-11-14T08:37:53;31.10;;;15.00;;
76336;SDS011;65157;50.082;18.178;2022-11-14T08:40:19;37.70;;;16.00;;
76336;SDS011;65157;50.082;18.178;2022-11-14T08:42:44;29.80;;;14.90;;
76336;SDS011;65157;50.082;18.178;2022-11-14T08:45:09;31.50;;;14.30;;
76336;SDS011;65157;50.082;18.178;2022-11-14T08:47:35;32.00;;;16.30;;
76336;SDS011;65157;50.082;18.178;2022-11-14T08:50:00;32.20;;;14.40;;
76336;SDS011;65157;50.082;18.178;2022-11-14T08:52:26;32.80;;;14.90;;
76336;SDS011;65157;50.082;18.178;2022-11-14T08:54:51;38.30;;;16.50;;
76336;SDS011;65157;50.082;18.178;2022-11-14T08:57:16;36.50;;;16.60;;
76336;SDS011;65157;50.082;18.178;2022-11-14T08:59:42;31.90;;;15.20;;
76336;SDS011;65157;50.082;18.178;2022-11-14T09:02:13;30.80;;;14.10;;
76336;SDS011;65157;50.082;18.178;2022-11-14T09:04:39;35.20;;;15.60;;
76336;SDS011;65157;50.082;18.178;2022-11-14T09:07:04;28.50;;;13.90;;
76336;SDS011;65157;50.082;18.178;2022-11-14T09:09:30;37.80;;;16.80;;
76336;SDS011;65157;50.082;18.178;2022-11-14T09:11:56;34.90;;;17.30;;
76336;SDS011;65157;50.082;18.178;2022-11-14T09:14:22;29.00;;;14.50;;
76336;SDS011;65157;50.082;18.178;2022-11-14T09:16:47;26.70;;;13.10;;
76336;SDS011;65157;50.082;18.178;2022-11-14T09:19:13;44.50;;;20.40;;
76336;SDS011;65157;50.082;18.178;2022-11-14T09:21:38;46.70;;;21.80;;
76336;SDS011;65157;50.082;18.178;2022-11-14T09:24:04;53.50;;;21.40;;
76336;SDS011;65157;50.082;18.178;2022-11-14T09:26:29;39.40;;;17.70;;
76336;SDS011;65157;50.082;18.178;2022-11-14T09:28:55;45.50;;;19.00;;
76336;SDS011;65157;50.082;18.178;2022-11-14T09:31:20;45.20;;;20.70;;
76336;SDS011;65157;50.082;18.178;2022-11-14T09:33:46;50.20;;;23.00;;
76336;SDS011;65157;50.082;18.178;2022-11-14T09:36:11;39.10;;;17.10;;
76336;SDS011;65157;50.082;18.178;2022-11-14T09:38:40;37.30;;;18.00;;
76336;SDS011;65157;50.082;18.178;2022-11-14T09:46:23;39.10;;;17.30;;
76336;SDS011;65157;50.082;18.178;2022-11-14T09:48:52;35.70;;;15.30;;
76336;SDS011;65157;50.082;18.178;2022-11-14T09:53:46;40.60;;;17.20;;
76336;SDS011;65157;50.082;18.178;2022-11-14T09:56:22;37.20;;;16.30;;
76336;SDS011;65157;50.082;18.178;2022-11-14T09:58:49;39.60;;;18.10;;
76336;SDS011;65157;50.082;18.178;2022-11-14T10:01:17;40.00;;;18.10;;
76336;SDS011;65157;50.082;18.178;2022-11-14T10:09:14;47.60;;;20.50;;
76336;SDS011;65157;50.082;18.178;2022-11-14T10:11:58;34.80;;;17.20;;
76336;SDS011;65157;50.082;18.178;2022-11-14T10:17:30;45.10;;;18.70;;
76336;SDS011;65157;50.082;18.178;2022-11-14T10:28:03;31.00;;;15.30;;
76336;SDS011;65157;50.082;18.178;2022-11-14T10:30:44;33.60;;;17.60;;
76336;SDS011;65157;50.082;18.178;2022-11-14T10:36:15;32.80;;;16.70;;
76336;SDS011;65157;50.082;18.178;2022-11-14T10:38:50;31.70;;;17.00;;
76336;SDS011;65157;50.082;18.178;2022-11-14T10:41:20;31.70;;;17.30;;
76336;SDS011;65157;50.082;18.178;2022-11-14T10:43:49;33.30;;;16.30;;
76336;SDS011;65157;50.082;18.178;2022-11-14T10:46:18;28.10;;;16.30;;
76336;SDS011;65157;50.082;18.178;2022-11-14T10:48:46;31.20;;;16.20;;
76336;SDS011;65157;50.082;18.178;2022-11-14T10:56:47;30.20;;;17.20;;
76336;SDS011;65157;50.082;18.178;2022-11-14T10:59:14;38.20;;;18.70;;
76336;SDS011;65157;50.082;18.178;2022-11-14T11:01:40;35.00;;;17.60;;
76336;SDS011;65157;50.082;18.178;2022-11-14T11:06:36;36.70;;;19.00;;
76336;SDS011;65157;50.082;18.178;2022-11-14T11:09:35;37.10;;;20.30;;
76336;SDS011;65157;50.082;18.178;2022-11-14T11:12:16;40.60;;;21.00;;
76336;SDS011;65157;50.082;18.178;2022-11-14T11:14:44;33.20;;;18.70;;
76336;SDS011;65157;50.082;18.178;2022-11-14T11:19:36;29.30;;;15.80;;
76336;SDS011;65157;50.082;18.178;2022-11-14T11:22:28;30.40;;;15.50;;
76336;SDS011;65157;50.082;18.178;2022-11-14T11:25:22;28.70;;;15.00;;
76336;SDS011;65157;50.082;18.178;2022-11-14T11:28:05;27.60;;;14.70;;
76336;SDS011;65157;50.082;18.178;2022-11-14T11:30:35;35.90;;;18.10;;
76336;SDS011;65157;50.082;18.178;2022-11-14T11:33:14;28.70;;;15.70;;
76336;SDS011;65157;50.082;18.178;2022-11-14T11:35:41;35.00;;;16.50;;
76336;SDS011;65157;50.082;18.178;2022-11-14T11:38:11;29.90;;;16.60;;
76336;SDS011;65157;50.082;18.178;2022-11-14T11:43:07;32.50;;;18.20;;
76336;SDS011;65157;50.082;18.178;2022-11-14T11:45:38;38.40;;;18.20;;
76336;SDS011;65157;50.082;18.178;2022-11-14T11:48:16;35.10;;;19.50;;
76336;SDS011;65157;50.082;18.178;2022-11-14T11:50:44;30.70;;;16.10;;
76336;SDS011;65157;50.082;18.178;2022-11-14T11:53:28;36.90;;;17.80;;
76336;SDS011;65157;50.082;18.178;2022-11-14T11:55:58;30.50;;;14.10;;
76336;SDS011;65157;50.082;18.178;2022-11-14T11:58:31;26.40;;;14.90;;
76336;SDS011;65157;50.082;18.178;2022-11-14T12:01:07;32.60;;;15.40;;
76336;SDS011;65157;50.082;18.178;2022-11-14T12:03:34;40.60;;;16.00;;
76336;SDS011;65157;50.082;18.178;2022-11-14T12:06:10;36.60;;;16.10;;
76336;SDS011;65157;50.082;18.178;2022-11-14T12:08:46;41.10;;;20.70;;
76336;SDS011;65157;50.082;18.178;2022-11-14T12:11:34;30.30;;;18.20;;
76336;SDS011;65157;50.082;18.178;2022-11-14T12:17:22;32.70;;;18.00;;
76336;SDS011;65157;50.082;18.178;2022-11-14T12:28:18;28.40;;;15.30;;
76336;SDS011;65157;50.082;18.178;2022-11-14T12:30:59;30.30;;;14.60;;
76336;SDS011;65157;50.082;18.178;2022-11-14T12:33:31;27.00;;;13.20;;
76336;SDS011;65157;50.082;18.178;2022-11-14T12:36:01;25.10;;;14.40;;
76336;SDS011;65157;50.082;18.178;2022-11-14T12:38:40;26.60;;;14.20;;
76336;SDS011;65157;50.082;18.178;2022-11-14T12:41:08;25.80;;;13.30;;
76336;SDS011;65157;50.082;18.178;2022-11-14T12:43:36;27.50;;;13.20;;
76336;SDS011;65157;50.082;18.178;2022-11-14T12:46:06;30.30;;;16.10;;
76336;SDS011;65157;50.082;18.178;2022-11-14T12:48:40;34.20;;;17.00;;
76336;SDS011;65157;50.082;18.178;2022-11-14T12:53:56;36.00;;;19.70;;
76336;SDS011;65157;50.082;18.178;2022-11-14T13:04:37;33.80;;;19.20;;
76336;SDS011;65157;50.082;18.178;2022-11-14T13:10:12;38.80;;;18.20;;
76336;SDS011;65157;50.082;18.178;2022-11-14T13:15:57;35.80;;;19.40;;
76336;SDS011;65157;50.082;18.178;2022-11-14T13:18:57;31.20;;;16.70;;
76336;SDS011;65157;50.082;18.178;2022-11-14T13:29:58;40.40;;;18.90;;
76336;SDS011;65157;50.082;18.178;2022-11-14T13:32:59;34.80;;;17.70;;
76336;SDS011;65157;50.082;18.178;2022-11-14T13:52:16;51.60;;;20.50;;
76336;SDS011;65157;50.082;18.178;2022-11-14T13:54:49;35.00;;;16.90;;
76336;SDS011;65157;50.082;18.178;2022-11-14T14:00:08;34.80;;;17.00;;
76336;SDS011;65157;50.082;18.178;2022-11-14T14:19:29;45.20;;;22.30;;
76336;SDS011;65157;50.082;18.178;2022-11-14T14:22:49;44.90;;;21.10;;
76336;SDS011;65157;50.082;18.178;2022-11-14T14:31:08;52.80;;;23.30;;
76336;SDS011;65157;50.082;18.178;2022-11-14T14:35:33;48.10;;;22.60;;
76336;SDS011;65157;50.082;18.178;2022-11-14T14:38:00;48.70;;;22.80;;
76336;SDS011;65157;50.082;18.178;2022-11-14T14:43:04;48.20;;;23.60;;
76336;SDS011;65157;50.082;18.178;2022-11-14T14:45:31;44.80;;;21.60;;
76336;SDS011;65157;50.082;18.178;2022-11-14T14:48:13;44.70;;;23.50;;
76336;SDS011;65157;50.082;18.178;2022-11-14T14:50:47;49.80;;;21.90;;
76336;SDS011;65157;50.082;18.178;2022-11-14T14:53:21;46.80;;;23.30;;
76336;SDS011;65157;50.082;18.178;2022-11-14T14:55:50;47.40;;;24.20;;
76336;SDS011;65157;50.082;18.178;2022-11-14T15:00:50;51.90;;;24.70;;
76336;SDS011;65157;50.082;18.178;2022-11-14T15:03:22;56.20;;;26.00;;
76336;SDS011;65157;50.082;18.178;2022-11-14T15:05:55;57.80;;;25.30;;
76336;SDS011;65157;50.082;18.178;2022-11-14T15:08:22;54.80;;;25.00;;
76336;SDS011;65157;50.082;18.178;2022-11-14T15:10:56;62.60;;;27.50;;
76336;SDS011;65157;50.082;18.178;2022-11-14T15:13:24;60.20;;;28.30;;
76336;SDS011;65157;50.082;18.178;2022-11-14T15:15:52;63.50;;;29.30;;
76336;SDS011;65157;50.082;18.178;2022-11-14T15:18:36;60.30;;;28.80;;
76336;SDS011;65157;50.082;18.178;2022-11-14T15:21:06;56.70;;;25.90;;
76336;SDS011;65157;50.082;18.178;2022-11-14T15:23:36;59.40;;;26.20;;
76336;SDS011;65157;50.082;18.178;2022-11-14T15:26:03;57.30;;;25.30;;
76336;SDS011;65157;50.082;18.178;2022-11-14T15:28:36;63.70;;;26.90;;
76336;SDS011;65157;50.082;18.178;2022-11-14T15:31:02;57.20;;;25.00;;
76336;SDS011;65157;50.082;18.178;2022-11-14T15:33:30;51.90;;;24.10;;
76336;SDS011;65157;50.082;18.178;2022-11-14T15:36:07;60.00;;;28.10;;
76336;SDS011;65157;50.082;18.178;2022-11-14T15:38:35;60.20;;;25.80;;
76336;SDS011;65157;50.082;18.178;2022-11-14T15:41:15;61.50;;;25.50;;
76336;SDS011;65157;50.082;18.178;2022-11-14T15:43:49;67.00;;;27.80;;
76336;SDS011;65157;50.082;18.178;2022-11-14T15:46:50;72.80;;;30.40;;
76336;SDS011;65157;50.082;18.178;2022-11-14T15:49:24;74.20;;;31.80;;
76336;SDS011;65157;50.082;18.178;2022-11-14T15:52:00;61.30;;;27.00;;
76336;SDS011;65157;50.082;18.178;2022-11-14T15:54:33;63.30;;;27.30;;
76336;SDS011;65157;50.082;18.178;2022-11-14T15:57:11;62.20;;;28.70;;
76336;SDS011;65157;50.082;18.178;2022-11-14T15:59:38;64.00;;;30.40;;
76336;SDS011;65157;50.082;18.178;2022-11-14T16:04:43;62.40;;;28.10;;
76336;SDS011;65157;50.082;18.178;2022-11-14T16:07:13;61.20;;;27.20;;
76336;SDS011;65157;50.082;18.178;2022-11-14T16:09:40;63.20;;;26.80;;
76336;SDS011;65157;50.082;18.178;2022-11-14T16:12:06;56.60;;;26.10;;
76336;SDS011;65157;50.082;18.178;2022-11-14T16:14:32;53.80;;;25.40;;
76336;SDS011;65157;50.082;18.178;2022-11-14T16:16:58;57.50;;;25.90;;
76336;SDS011;65157;50.082;18.178;2022-11-14T16:19:23;61.30;;;28.10;;
76336;SDS011;65157;50.082;18.178;2022-11-14T16:21:49;58.00;;;27.00;;
76336;SDS011;65157;50.082;18.178;2022-11-14T16:24:16;56.70;;;26.20;;
76336;SDS011;65157;50.082;18.178;2022-11-14T16:26:43;56.50;;;26.10;;
76336;SDS011;65157;50.082;18.178;2022-11-14T16:29:09;58.10;;;25.80;;
76336;SDS011;65157;50.082;18.178;2022-11-14T16:31:35;58.00;;;27.50;;
76336;SDS011;65157;50.082;18.178;2022-11-14T16:34:01;66.40;;;29.50;;